Time;durP1;ratioP1;P1;durP2;ratioP2;P2;SDS_P1;SDS_P2;PMS_P1;PMS_P2;Temp;Humidity;BMP_temperature;BMP_pressure;BME280_temperature;BME280_humidity;BME280_pressure;Samples;Min_cycle;Max_cycle;Signal;HPM_P1;HPM_P2
2021/06/20 00:00:38;;;;;;;;;0.00;0.00;;;;;22.20;68.26;100387.84;5125714;27;45929;-66
2021/06/20 00:03:04;;;;;;;;;0.00;0.00;;;;;22.16;68.16;100392.78;5125542;27;45369;-66
2021/06/20 00:05:33;;;;;;;;;0.00;0.00;;;;;22.13;67.84;100385.97;5113959;27;45307;-65
2021/06/20 00:08:01;;;;;;;;;0.00;0.00;;;;;22.11;68.43;100387.22;5105003;27;45352;-66
2021/06/20 00:10:28;;;;;;;;;0.00;0.00;;;;;22.07;68.12;100377.94;5104839;27;46601;-66
2021/06/20 00:12:54;;;;;;;;;0.00;0.00;;;;;22.08;68.08;100383.09;5104200;27;45289;-66
2021/06/20 00:15:21;;;;;;;;;0.00;0.00;;;;;22.08;68.24;100383.09;5117123;27;45257;-64
2021/06/20 00:17:46;;;;;;;;;0.00;0.00;;;;;22.08;68.28;100390.31;5125314;27;45466;-65
2021/06/20 00:20:14;;;;;;;;;0.00;0.00;;;;;22.08;68.03;100382.28;5125414;27;45462;-66
2021/06/20 00:22:40;;;;;;;;;0.00;0.00;;;;;22.17;68.21;100385.59;5124773;27;45305;-66
2021/06/20 00:25:07;;;;;;;;;0.00;0.00;;;;;22.19;67.89;100384.34;5125657;27;45329;-65
2021/06/20 00:27:32;;;;;;;;;0.00;0.00;;;;;22.18;67.56;100382.72;5125346;27;45650;-65
2021/06/20 00:29:58;;;;;;;;;0.00;0.00;;;;;22.17;67.00;100388.25;5125168;27;47514;-65
2021/06/20 00:32:23;;;;;;;;;0.00;0.00;;;;;22.15;65.99;100377.75;5124882;27;45237;-66
2021/06/20 00:34:49;;;;;;;;;0.75;0.75;;;;;22.13;65.78;100371.78;5124613;27;45390;-65
2021/06/20 00:37:14;;;;;;;;;0.00;0.00;;;;;22.09;65.90;100368.72;5125015;27;45299;-65
2021/06/20 00:39:40;;;;;;;;;0.00;0.00;;;;;22.02;65.87;100370.53;5124727;27;46465;-65
2021/06/20 00:42:05;;;;;;;;;0.00;0.00;;;;;21.97;65.71;100361.50;5124554;27;45234;-64
2021/06/20 00:44:42;;;;;;;;;0.00;0.00;;;;;21.92;64.68;100370.94;5124297;27;45382;-66
2021/06/20 00:47:08;;;;;;;;;0.00;0.00;;;;;21.88;64.26;100366.22;5125245;27;45498;-65
2021/06/20 00:49:33;;;;;;;;;0.00;0.00;;;;;21.85;63.85;100371.94;5124564;27;46447;-64
2021/06/20 00:51:58;;;;;;;;;0.00;0.00;;;;;21.82;62.52;100372.34;5106302;27;45295;-66
2021/06/20 00:54:24;;;;;;;;;0.00;0.00;;;;;21.77;62.04;100378.31;5106166;27;45425;-65
2021/06/20 00:56:49;;;;;;;;;0.00;0.00;;;;;21.68;61.69;100374.16;5125154;27;45481;-65
2021/06/20 00:59:14;;;;;;;;;0.00;0.00;;;;;21.63;61.65;100376.63;5123995;27;46254;-65
2021/06/20 01:01:40;;;;;;;;;0.00;0.00;;;;;21.59;61.88;100378.03;5106136;27;45401;-66
2021/06/20 01:04:05;;;;;;;;;0.00;0.00;;;;;21.55;62.00;100377.59;5123655;27;45453;-65
2021/06/20 01:06:30;;;;;;;;;0.00;0.00;;;;;21.54;62.09;100380.50;5112091;27;45489;-65
2021/06/20 01:08:56;;;;;;;;;0.00;0.00;;;;;21.50;61.52;100364.03;5124469;27;45380;-65
2021/06/20 01:11:21;;;;;;;;;0.00;0.00;;;;;21.46;61.34;100363.59;5124460;27;45214;-65
2021/06/20 01:13:48;;;;;;;;;0.00;0.00;;;;;21.43;61.61;100360.50;5110335;27;45375;-64
2021/06/20 01:16:14;;;;;;;;;0.00;0.00;;;;;21.41;61.70;100371.41;5124885;27;45155;-65
2021/06/20 01:18:40;;;;;;;;;0.00;0.00;;;;;21.39;61.92;100368.06;5124639;27;46295;-65
2021/06/20 01:21:08;;;;;;;;;0.00;0.00;;;;;21.37;61.75;100372.78;5124463;27;45513;-66
2021/06/20 01:23:34;;;;;;;;;0.00;0.00;;;;;21.37;61.78;100375.44;5124567;27;45535;-65
2021/06/20 01:25:59;;;;;;;;;0.00;0.00;;;;;21.31;61.91;100377.06;5124862;27;45280;-66
2021/06/20 01:28:30;;;;;;;;;0.00;0.00;;;;;21.29;62.17;100375.63;5123832;27;47381;-66
2021/06/20 01:31:00;;;;;;;;;0.00;0.00;;;;;21.24;61.93;100364.72;5105800;27;45357;-66
2021/06/20 01:33:27;;;;;;;;;0.00;0.00;;;;;21.24;62.23;100383.41;5124247;27;45241;-65
2021/06/20 01:35:54;;;;;;;;;0.00;0.00;;;;;21.24;62.50;100388.75;5124589;27;45144;-65
2021/06/20 01:38:20;;;;;;;;;0.00;0.00;;;;;21.20;62.45;100380.28;5123905;27;45310;-66
2021/06/20 01:40:45;;;;;;;;;0.00;0.00;;;;;21.19;62.96;100378.66;5105547;27;45472;-65
2021/06/20 01:43:11;;;;;;;;;0.00;0.00;;;;;21.15;62.78;100368.56;5123984;27;45296;-66
2021/06/20 01:45:39;;;;;;;;;0.00;0.00;;;;;21.15;63.01;100372.06;5124287;27;45572;-66
2021/06/20 01:48:06;;;;;;;;;0.00;0.00;;;;;21.16;63.10;100376.38;5105075;27;47183;-66
2021/06/20 01:50:32;;;;;;;;;0.00;0.00;;;;;21.15;63.67;100376.59;5105676;27;45199;-65
2021/06/20 01:53:08;;;;;;;;;0.00;0.00;;;;;21.14;63.56;100367.72;5123596;27;45336;-66
2021/06/20 01:55:37;;;;;;;;;0.00;0.00;;;;;21.13;63.47;100363.41;5105505;27;45544;-65
2021/06/20 01:58:06;;;;;;;;;0.00;0.00;;;;;21.14;63.84;100356.22;5104514;27;47306;-65
2021/06/20 02:00:32;;;;;;;;;0.00;0.00;;;;;21.13;63.64;100357.25;5123780;27;45228;-64
2021/06/20 02:03:08;;;;;;;;;0.00;0.00;;;;;21.12;63.72;100363.63;5104805;27;45267;-65
2021/06/20 02:05:34;;;;;;;;;0.00;0.00;;;;;21.07;64.10;100364.22;5111646;27;45145;-65
2021/06/20 02:08:00;;;;;;;;;0.00;0.00;;;;;21.07;64.08;100353.53;5084370;27;48742;-65
2021/06/20 02:10:25;;;;;;;;;0.00;0.00;;;;;21.05;64.26;100344.88;5115570;27;45190;-65
2021/06/20 02:12:52;;;;;;;;;0.00;0.00;;;;;21.05;64.42;100348.38;5117838;27;45356;-65
2021/06/20 02:15:18;;;;;;;;;0.00;0.00;;;;;21.03;64.40;100350.41;5113444;27;45343;-64
2021/06/20 02:17:44;;;;;;;;;0.00;0.00;;;;;21.02;64.78;100347.97;5109627;27;45384;-65
2021/06/20 02:20:12;;;;;;;;;0.00;0.00;;;;;20.98;64.64;100346.72;5123468;27;45253;-65
2021/06/20 02:22:39;;;;;;;;;0.00;0.00;;;;;20.95;65.25;100355.09;5123334;27;45412;-65
2021/06/20 02:25:06;;;;;;;;;0.00;0.00;;;;;20.93;65.42;100360.66;5123666;27;45465;-65
2021/06/20 02:27:31;;;;;;;;;0.00;0.00;;;;;20.92;65.19;100358.97;5104253;27;47254;-65
2021/06/20 02:29:57;;;;;;;;;0.00;0.00;;;;;20.90;65.64;100361.03;5123217;27;45404;-65
2021/06/20 02:32:24;;;;;;;;;0.00;0.00;;;;;20.89;65.34;100365.53;5104492;27;45362;-65
2021/06/20 02:34:51;;;;;;;;;0.00;0.00;;;;;20.87;65.82;100370.25;5123774;27;45545;-65
2021/06/20 02:37:17;;;;;;;;;0.00;0.00;;;;;20.83;65.91;100378.84;5123595;27;46537;-65
2021/06/20 02:39:43;;;;;;;;;0.00;0.00;;;;;20.80;65.77;100365.88;5104762;27;45313;-65
2021/06/20 02:42:10;;;;;;;;;0.00;0.00;;;;;20.83;66.47;100373.50;5104701;27;45246;-65
2021/06/20 02:44:36;;;;;;;;;0.00;0.00;;;;;20.81;66.53;100380.88;5104358;27;45595;-65
2021/06/20 02:47:02;;;;;;;;;0.00;0.00;;;;;20.78;66.42;100374.09;5104544;27;48251;-65
2021/06/20 02:49:28;;;;;;;;;0.00;0.00;;;;;20.76;66.06;100378.81;5122724;27;45344;-65
2021/06/20 02:51:54;;;;;;;;;0.00;0.00;;;;;20.76;66.91;100391.34;5104594;27;45341;-66
2021/06/20 02:54:20;;;;;;;;;0.00;0.00;;;;;20.74;66.83;100385.38;5122988;27;45439;-64
2021/06/20 02:56:46;;;;;;;;;0.00;0.00;;;;;20.70;66.67;100376.91;5104520;27;48190;-65
2021/06/20 02:59:12;;;;;;;;;0.00;0.00;;;;;20.74;66.09;100380.03;5122822;27;45282;-65
2021/06/20 03:01:37;;;;;;;;;0.00;0.00;;;;;20.68;66.05;100376.28;5123247;27;45262;-65
2021/06/20 03:04:03;;;;;;;;;0.00;0.00;;;;;20.68;66.03;100379.75;5104059;27;45425;-65
2021/06/20 03:06:28;;;;;;;;;0.00;0.00;;;;;20.67;66.06;100390.66;5109872;27;46472;-65
2021/06/20 03:08:54;;;;;;;;;0.00;0.00;;;;;20.66;65.37;100375.66;5104291;27;45692;-65
2021/06/20 03:11:19;;;;;;;;;0.00;0.00;;;;;20.60;65.19;100385.25;5100843;27;45410;-65
2021/06/20 03:13:46;;;;;;;;;0.00;0.00;;;;;20.57;64.81;100384.78;5097727;27;45398;-65
2021/06/20 03:16:12;;;;;;;;;0.00;0.00;;;;;20.52;65.00;100388.03;5104065;27;47348;-65
2021/06/20 03:18:38;;;;;;;;;0.00;0.00;;;;;20.46;64.79;100389.63;5122471;27;45387;-65
2021/06/20 03:21:03;;;;;;;;;0.00;0.00;;;;;20.45;65.16;100392.47;5122855;27;45966;-64
2021/06/20 03:23:28;;;;;;;;;0.00;0.00;;;;;20.36;65.27;100373.13;5122766;27;45405;-64
2021/06/20 03:25:54;;;;;;;;;0.00;0.00;;;;;20.34;65.06;100383.16;5122329;27;46173;-64
2021/06/20 03:28:19;;;;;;;;;0.00;0.00;;;;;20.32;64.78;100377.19;5104127;27;45321;-65
2021/06/20 03:30:44;;;;;;;;;0.00;0.00;;;;;20.29;64.33;100378.38;5104346;27;45372;-64
2021/06/20 03:33:10;;;;;;;;;0.00;0.00;;;;;20.27;64.49;100372.44;5104429;27;45425;-65
2021/06/20 03:35:35;;;;;;;;;0.00;0.00;;;;;20.24;64.04;100366.66;5104000;27;46997;-64
2021/06/20 03:38:01;;;;;;;;;0.00;0.00;;;;;20.23;64.29;100378.34;5122820;27;45297;-64
2021/06/20 03:40:26;;;;;;;;;0.00;0.00;;;;;20.23;63.91;100391.66;5122681;27;45148;-65
2021/06/20 03:42:52;;;;;;;;;0.00;0.00;;;;;20.20;63.72;100387.53;5122429;27;45321;-65
2021/06/20 03:45:17;;;;;;;;;0.00;0.00;;;;;20.20;63.81;100374.22;5122453;27;46298;-65
2021/06/20 03:47:43;;;;;;;;;0.00;0.00;;;;;20.15;63.35;100363.31;5122682;27;45299;-65
2021/06/20 03:50:09;;;;;;;;;0.00;0.00;;;;;20.16;63.45;100374.78;5122514;27;45117;-65
2021/06/20 03:52:35;;;;;;;;;0.00;0.00;;;;;20.17;63.48;100371.09;5122300;27;45211;-65
2021/06/20 03:55:01;;;;;;;;;0.00;0.00;;;;;20.16;63.19;100374.78;5122105;27;46361;-65
2021/06/20 03:57:27;;;;;;;;;0.00;0.00;;;;;20.13;63.07;100380.50;5122000;27;45442;-65
2021/06/20 03:59:52;;;;;;;;;0.00;0.00;;;;;20.09;63.01;100372.06;5122187;27;45342;-65
2021/06/20 04:02:18;;;;;;;;;0.00;0.00;;;;;20.08;63.09;100376.53;5122597;27;45315;-65
2021/06/20 04:04:44;;;;;;;;;0.00;0.00;;;;;20.07;63.25;100372.25;5097449;27;46842;-65
2021/06/20 04:07:12;;;;;;;;;0.00;0.00;;;;;20.08;62.60;100379.22;5101586;27;46516;-64
2021/06/20 04:09:44;;;;;;;;;0.00;0.00;;;;;20.07;62.58;100382.91;5083121;27;45267;-65
2021/06/20 04:12:11;;;;;;;;;0.00;0.00;;;;;20.07;63.03;100385.56;5115092;27;45317;-65
2021/06/20 04:14:38;;;;;;;;;0.00;0.00;;;;;20.05;62.81;100395.59;5103206;27;47061;-65
2021/06/20 04:17:05;;;;;;;;;0.00;0.00;;;;;20.05;62.63;100397.44;5103494;27;45923;-65
2021/06/20 04:19:31;;;;;;;;;0.00;0.00;;;;;20.06;62.76;100399.09;5101705;27;45222;-65
2021/06/20 04:21:56;;;;;;;;;0.00;0.00;;;;;20.04;62.47;100398.44;5115631;27;45453;-65
2021/06/20 04:24:21;;;;;;;;;0.00;0.00;;;;;20.03;62.51;100402.97;5103127;27;47280;-65
2021/06/20 04:26:47;;;;;;;;;0.00;0.00;;;;;20.07;62.42;100406.09;5121825;27;45278;-65
2021/06/20 04:29:13;;;;;;;;;0.00;0.00;;;;;20.05;62.74;100416.94;5121592;27;45357;-65
2021/06/20 04:31:38;;;;;;;;;0.00;0.00;;;;;20.03;62.53;100410.97;5121952;27;45325;-65
2021/06/20 04:34:04;;;;;;;;;0.00;0.00;;;;;20.01;62.35;100420.97;5103253;27;48004;-65
2021/06/20 04:36:29;;;;;;;;;0.00;0.00;;;;;20.03;62.29;100426.13;5121731;27;45390;-65
2021/06/20 04:38:55;;;;;;;;;0.00;0.00;;;;;20.03;62.08;100420.81;5123762;27;45569;-64
2021/06/20 04:41:22;;;;;;;;;0.00;0.00;;;;;20.01;62.09;100414.84;5125473;27;45407;-65
2021/06/20 04:46:29;;;;;;;;;0.00;0.00;;;;;20.03;62.40;100413.63;5125146;27;45279;-65
2021/06/20 04:49:08;;;;;;;;;0.00;0.00;;;;;20.05;62.25;100403.59;5125157;27;45407;-65
2021/06/20 04:51:39;;;;;;;;;0.00;0.00;;;;;20.12;62.02;100386.84;5125089;27;45462;-65
2021/06/20 04:54:05;;;;;;;;;0.00;0.00;;;;;20.19;61.70;100383.22;5124764;27;47131;-65
2021/06/20 04:56:30;;;;;;;;;0.00;0.00;;;;;20.25;61.24;100400.31;5124784;27;45359;-65
2021/06/20 04:58:56;;;;;;;;;0.00;0.00;;;;;20.25;61.60;100406.47;5124839;27;45486;-65
2021/06/20 05:01:22;;;;;;;;;0.00;0.00;;;;;20.26;61.29;100409.97;5106581;27;45385;-65
2021/06/20 05:03:48;;;;;;;;;0.00;0.00;;;;;20.27;61.26;100412.44;5124603;27;46320;-65
2021/06/20 05:06:14;;;;;;;;;0.00;0.00;;;;;20.23;61.04;100407.66;5104370;27;45271;-65
2021/06/20 05:08:39;;;;;;;;;0.00;0.00;;;;;20.24;61.10;100401.34;5116184;27;45463;-65
2021/06/20 05:11:06;;;;;;;;;0.00;0.00;;;;;20.25;60.76;100400.31;5106042;27;45325;-65
2021/06/20 05:13:31;;;;;;;;;0.00;0.00;;;;;20.25;61.08;100392.31;5112094;27;45414;-64
2021/06/20 05:15:57;;;;;;;;;0.00;0.00;;;;;20.25;60.52;100395.78;5122828;27;45324;-64
2021/06/20 05:18:22;;;;;;;;;0.00;0.00;;;;;20.25;60.20;100400.31;5124735;27;45736;-64
2021/06/20 05:20:47;;;;;;;;;0.00;0.00;;;;;20.27;60.63;100401.75;5124377;27;45370;-65
2021/06/20 05:23:13;;;;;;;;;0.00;0.00;;;;;20.31;60.25;100420.88;5124307;27;46433;-65
2021/06/20 05:25:38;;;;;;;;;0.00;0.00;;;;;20.31;60.60;100417.41;5105628;27;45400;-65
2021/06/20 05:28:04;;;;;;;;;0.00;0.00;;;;;20.32;60.48;100413.69;5124166;27;45592;-65
2021/06/20 05:30:30;;;;;;;;;0.00;0.00;;;;;20.31;60.59;100418.22;5124546;27;45290;-65
2021/06/20 05:32:55;;;;;;;;;0.00;0.00;;;;;20.35;60.40;100410.66;5124462;27;45323;-66
2021/06/20 05:35:21;;;;;;;;;0.00;0.00;;;;;20.42;60.54;100407.03;5123968;27;45293;-65
2021/06/20 05:37:46;;;;;;;;;0.00;0.00;;;;;20.47;60.45;100401.97;5105866;27;45315;-65
2021/06/20 05:40:13;;;;;;;;;0.00;0.00;;;;;20.52;60.72;100398.72;5124281;27;45221;-65
2021/06/20 05:42:38;;;;;;;;;0.00;0.00;;;;;20.59;60.49;100402.28;5123632;27;45351;-65
2021/06/20 05:45:05;;;;;;;;;0.00;0.00;;;;;20.68;60.14;100409.13;5124029;27;45183;-65
2021/06/20 05:47:30;;;;;;;;;0.00;0.00;;;;;20.73;59.91;100407.72;5124127;27;45339;-65
2021/06/20 05:49:55;;;;;;;;;0.00;0.00;;;;;20.80;60.14;100414.78;5122792;27;45269;-65
2021/06/20 05:52:21;;;;;;;;;0.00;0.00;;;;;20.88;59.53;100414.63;5105347;27;46413;-67
2021/06/20 05:54:50;;;;;;;;;0.00;0.00;;;;;20.96;59.64;100413.63;5101656;27;45389;-65
2021/06/20 05:57:20;;;;;;;;;0.00;0.00;;;;;21.04;59.15;100410.00;5103479;27;45312;-67
2021/06/20 05:59:45;;;;;;;;;0.00;0.00;;;;;21.09;59.06;100420.91;5103548;27;45451;-66
2021/06/20 06:02:11;;;;;;;;;0.00;0.00;;;;;21.17;58.75;100430.63;5101712;27;47391;-66
2021/06/20 06:04:37;;;;;;;;;0.00;0.00;;;;;21.21;58.42;100421.19;5098636;27;45376;-66
2021/06/20 06:07:03;;;;;;;;;0.00;0.00;;;;;21.31;58.17;100419.78;5082996;27;45286;-65
2021/06/20 06:09:28;;;;;;;;;0.00;0.00;;;;;21.43;57.90;100411.28;5082574;27;45309;-65
2021/06/20 06:11:53;;;;;;;;;0.00;0.00;;;;;21.54;57.67;100412.56;5081045;27;47039;-66
2021/06/20 06:14:20;;;;;;;;;0.00;0.00;;;;;21.79;57.63;100428.88;5082098;27;45497;-66
2021/06/20 06:16:46;;;;;;;;;0.00;0.00;;;;;22.31;56.77;100432.75;5092422;27;45473;-66
2021/06/20 06:19:11;;;;;;;;;0.00;0.00;;;;;22.73;55.21;100431.53;5103010;27;45347;-66
2021/06/20 06:21:37;;;;;;;;;0.00;0.00;;;;;22.96;55.25;100418.75;5102957;27;45548;-66
2021/06/20 06:24:03;;;;;;;;;0.00;0.00;;;;;23.14;54.93;100427.81;5102748;27;45245;-67
2021/06/20 06:26:29;;;;;;;;;0.00;0.00;;;;;23.25;54.96;100423.66;5101823;27;45373;-66
2021/06/20 06:28:54;;;;;;;;;0.00;0.00;;;;;23.27;53.63;100424.28;5102769;27;45201;-67
2021/06/20 06:31:20;;;;;;;;;0.00;0.00;;;;;23.29;53.65;100413.38;5102363;27;46362;-66
2021/06/20 06:33:45;;;;;;;;;0.00;0.00;;;;;23.38;53.90;100417.44;5100996;27;45851;-66
2021/06/20 06:36:10;;;;;;;;;0.00;0.00;;;;;23.46;53.08;100411.03;5101139;27;45242;-66
2021/06/20 06:38:36;;;;;;;;;0.00;0.00;;;;;23.59;53.23;100418.22;5102723;27;45415;-66
2021/06/20 06:41:01;;;;;;;;;0.00;0.00;;;;;23.67;53.05;100409.91;5102536;27;46731;-66
2021/06/20 06:43:26;;;;;;;;;0.00;0.00;;;;;23.64;52.98;100397.75;5101974;27;45328;-67
2021/06/20 06:45:52;;;;;;;;;0.00;0.00;;;;;23.73;52.66;100407.19;5102517;27;45306;-66
2021/06/20 06:48:17;;;;;;;;;0.00;0.00;;;;;24.00;52.15;100411.66;5102570;27;45380;-66
2021/06/20 06:50:44;;;;;;;;;0.00;0.00;;;;;24.32;52.02;100420.53;5100845;27;48193;-66
2021/06/20 06:53:10;;;;;;;;;0.00;0.00;;;;;24.69;51.22;100413.44;5107106;27;45473;-66
2021/06/20 06:55:35;;;;;;;;;0.00;0.00;;;;;25.03;50.15;100408.53;5123304;27;45360;-66
2021/06/20 06:58:01;;;;;;;;;0.00;0.00;;;;;25.41;49.65;100412.94;5122914;27;45390;-67
2021/06/20 07:00:27;;;;;;;;;0.00;0.00;;;;;25.77;48.20;100422.00;5122814;27;45665;-65
2021/06/20 07:02:53;;;;;;;;;0.00;0.00;;;;;26.16;48.37;100425.22;5122548;27;45103;-67
2021/06/20 07:05:19;;;;;;;;;0.00;0.00;;;;;26.51;48.00;100432.56;5113206;27;45301;-66
2021/06/20 07:07:44;;;;;;;;;0.00;0.00;;;;;26.85;46.83;100432.84;5084071;27;45366;-67
2021/06/20 07:10:10;;;;;;;;;0.00;0.00;;;;;27.23;46.31;100434.25;5102133;27;45407;-67
2021/06/20 07:12:36;;;;;;;;;0.00;0.00;;;;;27.51;45.54;100433.50;5115122;27;45184;-67
2021/06/20 07:15:05;;;;;;;;;0.00;0.00;;;;;27.76;44.08;100431.31;5111845;27;45341;-67
2021/06/20 07:17:32;;;;;;;;;0.00;0.00;;;;;27.87;43.85;100435.03;5122749;27;45451;-66
2021/06/20 07:19:57;;;;;;;;;0.00;0.00;;;;;27.74;43.70;100430.72;5122520;27;46197;-66
2021/06/20 07:22:23;;;;;;;;;0.00;0.00;;;;;27.88;43.68;100433.16;5122261;27;45285;-66
2021/06/20 07:24:48;;;;;;;;;0.00;0.00;;;;;27.91;43.62;100432.69;5122535;27;45328;-66
2021/06/20 07:27:14;;;;;;;;;0.00;0.00;;;;;28.37;42.99;100434.31;5122037;27;45207;-67
2021/06/20 07:29:44;;;;;;;;;0.00;0.00;;;;;28.77;42.25;100435.22;5121846;27;46046;-66
2021/06/20 07:32:10;;;;;;;;;0.00;0.00;;;;;28.89;41.69;100435.97;5103550;27;45426;-66
2021/06/20 07:34:36;;;;;;;;;0.00;0.00;;;;;28.97;41.39;100440.13;5103566;27;45484;-66
2021/06/20 07:37:01;;;;;;;;;0.00;0.00;;;;;28.48;41.29;100448.00;5122059;27;45298;-66
2021/06/20 07:39:27;;;;;;;;;0.00;0.00;;;;;28.39;41.17;100456.50;5121951;27;45405;-66
2021/06/20 07:41:52;;;;;;;;;0.00;0.00;;;;;28.86;41.52;100451.88;5121262;27;45241;-65
2021/06/20 07:44:17;;;;;;;;;0.00;0.00;;;;;29.02;40.73;100449.13;5121394;27;46487;-67
2021/06/20 07:46:43;;;;;;;;;0.00;0.00;;;;;29.00;39.99;100448.56;5121339;27;45416;-66
2021/06/20 07:49:08;;;;;;;;;0.00;0.00;;;;;28.97;40.36;100440.94;5121895;27;45283;-66
2021/06/20 07:51:34;;;;;;;;;0.00;0.00;;;;;28.96;39.74;100435.78;5102642;27;45251;-65
2021/06/20 07:53:59;;;;;;;;;0.00;0.00;;;;;29.12;39.87;100434.16;5103066;27;45207;-66
2021/06/20 07:56:25;;;;;;;;;0.00;0.00;;;;;29.28;39.90;100427.06;5121811;27;45507;-66
2021/06/20 07:58:50;;;;;;;;;0.00;0.00;;;;;29.15;39.58;100429.03;5121119;27;45321;-66
2021/06/20 08:01:16;;;;;;;;;0.00;0.00;;;;;29.50;38.92;100427.06;5121745;27;45271;-66
2021/06/20 08:03:41;;;;;;;;;0.00;0.00;;;;;30.05;38.51;100426.06;5107422;27;45839;-66
2021/06/20 08:06:06;;;;;;;;;0.00;0.00;;;;;30.37;38.23;100420.69;5104457;27;45563;-66
2021/06/20 08:08:32;;;;;;;;;0.00;0.00;;;;;30.61;37.75;100420.34;5092611;27;48387;-67
2021/06/20 08:10:57;;;;;;;;;0.00;0.00;;;;;30.40;37.50;100419.34;5102338;27;45382;-67
2021/06/20 08:13:23;;;;;;;;;0.00;0.00;;;;;30.82;37.40;100418.56;5111829;27;45395;-66
2021/06/20 08:15:49;;;;;;;;;0.00;0.00;;;;;31.05;36.09;100414.66;5121787;27;45415;-66
2021/06/20 08:18:14;;;;;;;;;0.00;0.00;;;;;31.34;36.05;100417.78;5125328;27;46450;-66
2021/06/20 08:20:40;;;;;;;;;0.00;0.00;;;;;31.48;35.69;100424.38;5124953;27;45450;-66
2021/06/20 08:23:05;;;;;;;;;0.00;0.00;;;;;31.68;34.71;100420.09;5125010;27;45342;-66
2021/06/20 08:25:31;;;;;;;;;0.00;0.00;;;;;31.97;34.58;100409.56;5124959;27;45596;-67
2021/06/20 08:27:56;;;;;;;;;0.00;0.00;;;;;32.27;34.11;100397.13;5124358;27;45607;-66
2021/06/20 08:30:22;;;;;;;;;0.00;0.00;;;;;32.63;34.03;100411.50;5124204;27;45367;-67
2021/06/20 08:32:47;;;;;;;;;0.00;0.00;;;;;33.04;33.20;100405.97;5124864;27;45175;-66
2021/06/20 08:35:16;;;;;;;;;0.00;0.00;;;;;33.36;31.60;100410.22;5124626;27;45369;-66
2021/06/20 08:37:42;;;;;;;;;0.00;0.00;;;;;33.36;31.95;100410.22;5124181;27;47361;-66
2021/06/20 08:40:08;;;;;;;;;0.00;0.00;;;;;33.61;31.51;100403.88;5124615;27;45363;-66
2021/06/20 08:42:33;;;;;;;;;0.00;0.00;;;;;33.78;31.20;100408.97;5124247;27;45338;-66
2021/06/20 08:44:59;;;;;;;;;0.00;0.00;;;;;33.85;31.13;100405.91;5124922;27;45389;-66
2021/06/20 08:47:24;;;;;;;;;0.00;0.00;;;;;33.70;30.68;100415.81;5105704;27;48089;-66
2021/06/20 08:49:49;;;;;;;;;0.00;0.00;;;;;33.46;30.26;100414.84;5124246;27;45270;-65
2021/06/20 08:52:15;;;;;;;;;0.00;0.00;;;;;33.39;31.49;100419.75;5124670;27;45371;-66
2021/06/20 08:55:00;;;;;;;;;0.00;0.00;;;;;33.35;31.69;100413.22;5124088;27;45300;-67
2021/06/20 08:57:30;;;;;;;;;0.00;0.00;;;;;33.44;31.27;100415.09;5104960;27;47884;-66
2021/06/20 08:59:55;;;;;;;;;0.00;0.00;;;;;33.77;30.51;100406.50;5124358;27;45250;-67
2021/06/20 09:02:28;;;;;;;;;0.00;0.00;;;;;34.08;29.92;100404.38;5124087;27;45214;-66
2021/06/20 09:04:58;;;;;;;;;0.00;0.00;;;;;34.53;30.15;100400.47;5116763;27;45227;-65
2021/06/20 09:07:33;;;;;;;;;0.00;0.00;;;;;35.37;29.48;100393.03;5117992;27;46277;-66
2021/06/20 09:10:21;;;;;;;;;0.00;0.00;;;;;36.72;28.21;100384.06;5124278;27;45329;-66
2021/06/20 09:12:50;;;;;;;;;0.00;0.00;;;;;38.07;26.81;100366.38;5118272;27;45360;-66
2021/06/20 09:15:21;;;;;;;;;0.00;0.00;;;;;39.55;25.47;100370.50;5105716;27;45236;-67
2021/06/20 09:17:58;;;;;;;;;0.00;0.00;;;;;41.07;23.49;100363.94;5109356;27;46235;-65
2021/06/20 09:20:44;;;;;;;;;0.00;0.00;;;;;42.67;22.02;100356.28;5105019;27;45280;-66
2021/06/20 09:23:16;;;;;;;;;0.00;0.00;;;;;43.75;20.08;100361.13;5105187;27;45321;-67
2021/06/20 09:25:44;;;;;;;;;0.00;0.00;;;;;44.37;18.77;100360.78;5123933;27;45238;-66
2021/06/20 09:28:11;;;;;;;;;0.00;0.00;;;;;44.56;18.16;100344.28;5104633;27;47371;-66
2021/06/20 09:30:45;;;;;;;;;0.00;0.00;;;;;44.46;18.48;100338.50;5123312;27;45503;-65
2021/06/20 09:33:11;;;;;;;;;0.00;0.00;;;;;44.06;18.96;100337.47;5123779;27;45250;-65
2021/06/20 09:35:51;;;;;;;;;0.00;0.00;;;;;43.82;18.58;100330.09;5124088;27;45593;-66
2021/06/20 09:38:27;;;;;;;;;0.00;0.00;;;;;43.87;20.16;100329.84;5124015;27;45533;-66
2021/06/20 09:41:25;;;;;;;;;0.00;0.00;;;;;44.10;19.09;100318.19;5123817;27;45420;-66
2021/06/20 09:43:52;;;;;;;;;0.00;0.00;;;;;44.19;18.73;100335.41;5066621;27;45160;-66
2021/06/20 09:46:18;;;;;;;;;0.00;0.00;;;;;44.28;17.92;100341.59;5123691;27;45626;-67
2021/06/20 09:48:45;;;;;;;;;0.00;0.00;;;;;44.49;17.96;100346.88;5123245;27;45327;-66
2021/06/20 09:51:29;;;;;;;;;0.00;0.00;;;;;44.57;17.55;100343.09;5122887;27;45275;-66
2021/06/20 09:53:55;;;;;;;;;0.00;0.00;;;;;44.72;16.79;100340.69;5104720;27;45414;-66
2021/06/20 09:56:23;;;;;;;;;0.00;0.00;;;;;44.94;16.39;100334.47;5122776;27;45566;-68
2021/06/20 09:59:07;;;;;;;;;0.00;0.00;;;;;45.44;16.98;100323.66;5102952;27;48363;-67
2021/06/20 10:01:38;;;;;;;;;0.00;0.00;;;;;46.60;15.62;100330.88;5122872;27;45425;-66
2021/06/20 10:04:04;;;;;;;;;0.00;0.00;;;;;48.01;13.78;100336.22;5123131;27;45396;-66
2021/06/20 10:06:29;;;;;;;;;0.00;0.00;;;;;49.23;13.20;100334.25;5102214;27;45351;-66
2021/06/20 10:08:54;;;;;;;;;0.00;0.00;;;;;49.71;13.02;100338.81;5115582;27;46281;-66
2021/06/20 10:11:20;;;;;;;;;0.00;0.00;;;;;48.92;12.81;100350.41;5122575;27;45267;-67
2021/06/20 10:13:46;;;;;;;;;0.00;0.00;;;;;49.15;12.09;100338.22;5108896;27;45443;-67
2021/06/20 10:16:24;;;;;;;;;0.00;0.00;;;;;48.55;12.50;100347.78;5122660;27;45235;-66
2021/06/20 10:19:04;;;;;;;;;0.00;0.00;;;;;48.21;12.64;100336.75;5123089;27;46180;-66
2021/06/20 10:21:42;;;;;;;;;0.00;0.00;;;;;46.01;13.77;100316.44;5122990;27;45416;-66
2021/06/20 10:24:19;;;;;;;;;0.00;0.00;;;;;46.48;14.86;100310.84;5122832;27;45276;-66
2021/06/20 10:26:51;;;;;;;;;0.00;0.00;;;;;46.41;14.55;100311.53;5122539;27;45522;-66
2021/06/20 10:29:24;;;;;;;;;0.00;0.00;;;;;44.95;15.82;100299.25;5121840;27;46395;-66
2021/06/20 10:31:51;;;;;;;;;0.00;0.00;;;;;44.43;16.21;100299.25;5103569;27;45283;-66
2021/06/20 10:34:29;;;;;;;;;0.00;0.00;;;;;44.16;15.99;100292.66;5122054;27;45300;-66
2021/06/20 10:36:59;;;;;;;;;0.00;0.00;;;;;44.00;16.12;100295.41;5121763;27;45393;-66
2021/06/20 10:39:25;;;;;;;;;0.00;0.00;;;;;43.58;15.96;100289.53;5122839;27;45352;-66
2021/06/20 10:42:11;;;;;;;;;0.00;0.00;;;;;43.29;16.50;100288.75;5122222;27;45500;-66
2021/06/20 10:44:52;;;;;;;;;0.00;0.00;;;;;42.63;17.14;100276.09;5122383;27;45219;-66
2021/06/20 10:47:30;;;;;;;;;0.00;0.00;;;;;42.18;17.33;100254.91;5121507;27;45577;-67
2021/06/20 10:50:02;;;;;;;;;0.00;0.00;;;;;42.15;17.54;100237.09;5121413;27;45452;-66
2021/06/20 10:52:28;;;;;;;;;0.00;0.00;;;;;42.57;17.24;100225.00;5122447;27;45442;-66
2021/06/20 10:55:10;;;;;;;;;0.00;0.00;;;;;43.04;16.64;100218.94;5122239;27;45352;-67
2021/06/20 10:57:47;;;;;;;;;0.00;0.00;;;;;42.98;17.26;100206.50;5122113;27;45621;-65
2021/06/20 11:00:25;;;;;;;;;0.00;0.00;;;;;43.70;16.02;100200.22;5121832;27;45473;-65
2021/06/20 11:02:51;;;;;;;;;0.00;0.00;;;;;44.30;15.57;100205.59;5121913;27;45440;-66
2021/06/20 11:05:25;;;;;;;;;0.00;0.00;;;;;45.08;14.88;100208.47;5111628;27;45438;-66
2021/06/20 11:08:05;;;;;;;;;0.00;0.00;;;;;45.38;14.22;100214.22;5101298;27;45364;-66
2021/06/20 11:10:30;;;;;;;;;0.00;0.00;;;;;45.34;13.66;100216.09;5114030;27;46168;-67
2021/06/20 11:12:56;;;;;;;;;0.00;0.00;;;;;46.91;13.90;100198.34;5114563;27;45194;-66
2021/06/20 11:15:26;;;;;;;;;0.00;0.00;;;;;49.04;12.16;100168.09;5090173;27;45316;-67
2021/06/20 11:17:52;;;;;;;;;0.00;0.00;;;;;50.16;11.39;100168.91;5108432;27;45215;-67
2021/06/20 11:20:17;;;;;;;;;0.00;0.00;;;;;48.14;11.90;100169.66;5121448;27;45612;-66
2021/06/20 11:22:42;;;;;;;;;1.00;0.00;;;;;45.59;13.04;100166.66;5121730;27;45195;-66
2021/06/20 11:25:08;;;;;;;;;0.00;0.00;;;;;43.25;13.95;100170.97;5122064;27;45260;-66
2021/06/20 11:27:34;;;;;;;;;0.00;0.00;;;;;42.01;15.23;100162.16;5121200;27;45757;-66